createdAt,value
2022-08-26T00:02:12.762Z,93.93
2022-08-26T00:04:39.394Z,94.69
2022-08-26T00:07:06.229Z,94.91
2022-08-26T00:09:33.066Z,94.84
2022-08-26T00:12:04.046Z,94.92
2022-08-26T00:14:31.650Z,95.72
2022-08-26T00:16:58.498Z,96.54
2022-08-26T00:19:25.248Z,97.65
2022-08-26T00:21:51.726Z,97.18
2022-08-26T00:24:19.268Z,99.41
2022-08-26T00:26:45.823Z,100.00
2022-08-26T00:29:13.053Z,99.61
2022-08-26T00:31:40.078Z,99.96
2022-08-26T00:34:07.284Z,100.00
2022-08-26T00:36:36.169Z,100.00
2022-08-26T00:39:03.134Z,100.00
2022-08-26T00:41:29.645Z,100.00
2022-08-26T00:43:56.286Z,100.00
2022-08-26T00:46:26.927Z,100.00
2022-08-26T00:48:58.746Z,100.00
2022-08-26T00:51:29.695Z,100.00
2022-08-26T00:54:06.551Z,100.00
2022-08-26T00:56:36.319Z,100.00
2022-08-26T00:59:05.196Z,100.00
2022-08-26T01:01:32.268Z,100.00
2022-08-26T01:04:00.030Z,100.00
2022-08-26T01:06:27.315Z,100.00
2022-08-26T01:08:54.305Z,100.00
2022-08-26T01:11:20.925Z,100.00
2022-08-26T01:13:48.698Z,100.00
2022-08-26T01:16:16.102Z,100.00
2022-08-26T01:18:43.425Z,100.00
2022-08-26T01:21:36.428Z,100.00
2022-08-26T01:24:07.954Z,100.00
2022-08-26T01:26:40.493Z,100.00
2022-08-26T01:29:08.075Z,100.00
2022-08-26T01:31:39.007Z,100.00
2022-08-26T01:34:05.514Z,100.00
2022-08-26T01:36:32.038Z,100.00
2022-08-26T01:38:58.527Z,100.00
2022-08-26T01:41:27.210Z,100.00
2022-08-26T01:43:55.809Z,100.00
2022-08-26T01:46:23.396Z,100.00
2022-08-26T01:48:52.396Z,100.00
2022-08-26T01:51:22.738Z,100.00
2022-08-26T01:53:49.558Z,100.00
2022-08-26T01:56:16.369Z,100.00
2022-08-26T01:58:47.966Z,100.00
2022-08-26T02:01:15.549Z,100.00
2022-08-26T02:03:56.371Z,100.00
2022-08-26T02:06:23.732Z,100.00
2022-08-26T02:08:52.938Z,100.00
2022-08-26T02:11:19.513Z,100.00
2022-08-26T02:13:48.976Z,100.00
2022-08-26T02:16:16.334Z,100.00
2022-08-26T02:18:43.899Z,100.00
2022-08-26T02:21:13.774Z,100.00
2022-08-26T02:23:40.314Z,100.00
2022-08-26T02:26:12.463Z,100.00
2022-08-26T02:28:54.400Z,100.00
2022-08-26T02:31:20.979Z,100.00
2022-08-26T02:33:48.959Z,100.00
2022-08-26T02:36:22.884Z,100.00
2022-08-26T02:38:49.656Z,100.00
2022-08-26T02:41:18.522Z,100.00
2022-08-26T02:43:45.421Z,100.00
2022-08-26T02:46:12.034Z,100.00
2022-08-26T02:48:47.841Z,100.00
2022-08-26T02:51:14.381Z,100.00
2022-08-26T02:53:40.902Z,100.00
2022-08-26T02:56:09.534Z,100.00
2022-08-26T02:58:35.989Z,100.00
2022-08-26T03:01:04.756Z,100.00
2022-08-26T03:03:32.030Z,100.00
2022-08-26T03:05:59.144Z,100.00
2022-08-26T03:08:25.656Z,100.00
2022-08-26T03:10:52.197Z,100.00
2022-08-26T03:13:19.284Z,100.00
2022-08-26T03:15:45.984Z,100.00
2022-08-26T03:18:14.308Z,100.00
2022-08-26T03:20:40.757Z,100.00
2022-08-26T03:23:07.848Z,100.00
2022-08-26T03:25:35.640Z,100.00
2022-08-26T03:28:03.252Z,100.00
2022-08-26T03:30:45.405Z,100.00
2022-08-26T03:33:13.061Z,100.00
2022-08-26T03:35:40.727Z,100.00
2022-08-26T03:38:08.414Z,100.00
2022-08-26T03:40:38.760Z,100.00
2022-08-26T03:43:07.300Z,100.00
2022-08-26T03:45:37.373Z,100.00
2022-08-26T03:48:04.178Z,100.00
2022-08-26T03:50:31.120Z,100.00
2022-08-26T03:53:01.004Z,100.00
2022-08-26T03:55:31.080Z,100.00
2022-08-26T03:57:57.786Z,100.00
2022-08-26T04:00:24.394Z,100.00
2022-08-26T04:02:53.250Z,100.00
2022-08-26T04:05:20.648Z,100.00
2022-08-26T04:07:48.526Z,100.00
2022-08-26T04:10:20.192Z,100.00
2022-08-26T04:12:47.197Z,100.00
2022-08-26T04:15:15.582Z,100.00
2022-08-26T04:17:42.511Z,100.00
2022-08-26T04:20:09.659Z,100.00
2022-08-26T04:22:36.126Z,100.00
2022-08-26T04:25:02.696Z,100.00
2022-08-26T04:27:33.731Z,100.00
2022-08-26T04:30:00.569Z,100.00
2022-08-26T04:32:27.178Z,100.00
2022-08-26T04:34:53.654Z,100.00
2022-08-26T04:37:20.185Z,100.00
2022-08-26T04:39:50.943Z,100.00
2022-08-26T04:42:21.081Z,100.00
2022-08-26T04:44:52.662Z,100.00
2022-08-26T04:47:19.117Z,100.00
2022-08-26T04:49:45.576Z,100.00
2022-08-26T04:52:12.081Z,100.00
2022-08-26T04:54:39.053Z,100.00
2022-08-26T04:57:08.522Z,100.00
2022-08-26T04:59:38.960Z,100.00
2022-08-26T05:02:06.968Z,98.67
2022-08-26T05:04:34.024Z,88.14
2022-08-26T05:07:02.650Z,82.77
2022-08-26T05:09:29.741Z,77.65
2022-08-26T05:11:57.190Z,72.48
2022-08-26T05:14:23.691Z,69.35
2022-08-26T05:16:51.060Z,65.51
2022-08-26T05:19:18.972Z,63.03
2022-08-26T05:21:45.946Z,65.25
2022-08-26T05:24:13.635Z,61.80
2022-08-26T05:26:40.100Z,65.76
2022-08-26T05:29:06.646Z,62.27
2022-08-26T05:31:34.317Z,59.78
2022-08-26T05:34:03.497Z,57.08
2022-08-26T05:36:30.967Z,55.01
2022-08-26T05:38:57.878Z,53.56
2022-08-26T05:41:34.273Z,55.95
2022-08-26T05:44:03.691Z,56.10
2022-08-26T05:46:30.306Z,52.34
2022-08-26T05:48:57.166Z,52.41
2022-08-26T05:51:26.079Z,51.67
2022-08-26T05:53:54.878Z,50.20
2022-08-26T05:56:24.731Z,55.64
2022-08-26T05:58:51.173Z,47.98
2022-08-26T06:01:19.617Z,47.33
2022-08-26T06:03:51.726Z,49.83
2022-08-26T06:06:28.782Z,48.97
2022-08-26T06:08:57.991Z,49.23
2022-08-26T06:11:25.543Z,43.84
2022-08-26T06:13:53.372Z,44.11
2022-08-26T06:16:21.591Z,42.13
2022-08-26T06:18:48.929Z,41.70
2022-08-26T06:21:26.218Z,40.60
2022-08-26T06:24:12.395Z,39.21
2022-08-26T06:26:39.399Z,41.06
2022-08-26T06:29:09.408Z,44.31
2022-08-26T06:31:36.443Z,42.04
2022-08-26T06:34:07.369Z,37.79
2022-08-26T06:36:37.092Z,40.84
2022-08-26T06:39:09.437Z,39.77
2022-08-26T06:41:40.162Z,36.60
2022-08-26T06:44:09.702Z,35.96
2022-08-26T06:46:36.607Z,38.56
2022-08-26T06:49:03.213Z,40.50
2022-08-26T06:51:32.164Z,38.54
2022-08-26T06:54:02.465Z,36.28
2022-08-26T06:56:35.816Z,36.55
2022-08-26T06:59:02.792Z,36.90
2022-08-26T07:01:34.356Z,35.86
2022-08-26T07:04:03.893Z,35.58
2022-08-26T07:06:39.029Z,33.52
2022-08-26T07:09:06.545Z,35.86
2022-08-26T07:11:37.257Z,31.59
2022-08-26T07:14:04.470Z,28.64
2022-08-26T07:16:31.008Z,29.94
2022-08-26T07:18:57.578Z,30.34
2022-08-26T07:21:24.668Z,27.69
2022-08-26T07:23:52.454Z,27.67
2022-08-26T07:26:20.714Z,26.44
2022-08-26T07:28:48.658Z,26.87
2022-08-26T07:31:16.156Z,27.52
2022-08-26T07:33:42.734Z,28.98
2022-08-26T07:36:10.839Z,27.13
2022-08-26T07:38:38.765Z,28.40
2022-08-26T07:41:05.413Z,29.77
2022-08-26T07:43:32.550Z,30.16
2022-08-26T07:45:59.006Z,29.40
2022-08-26T07:48:25.570Z,30.94
2022-08-26T07:50:53.784Z,30.04
2022-08-26T07:53:21.455Z,28.20
2022-08-26T07:55:51.150Z,28.24
2022-08-26T07:58:19.111Z,28.04
2022-08-26T08:00:45.886Z,27.39
2022-08-26T08:03:13.078Z,29.51
2022-08-26T08:05:41.263Z,30.15
2022-08-26T08:08:26.255Z,31.05
2022-08-26T08:10:55.509Z,30.16
2022-08-26T08:13:23.517Z,30.22
2022-08-26T08:15:50.331Z,33.40
2022-08-26T08:18:16.950Z,33.16
2022-08-26T08:20:47.659Z,31.44
2022-08-26T08:23:26.011Z,32.21
2022-08-26T08:26:01.366Z,36.28
2022-08-26T08:28:28.037Z,32.71
2022-08-26T08:30:54.663Z,34.07
2022-08-26T08:33:21.131Z,32.46
2022-08-26T08:35:48.442Z,33.30
2022-08-26T08:38:15.725Z,35.05
2022-08-26T08:40:43.973Z,32.57
2022-08-26T08:43:13.574Z,33.02
2022-08-26T08:45:42.541Z,31.90
2022-08-26T08:48:18.043Z,32.98
2022-08-26T08:50:46.218Z,34.41
2022-08-26T08:53:32.908Z,34.62
2022-08-26T08:56:05.235Z,34.13
2022-08-26T08:58:40.339Z,37.97
2022-08-26T09:01:12.183Z,35.13
2022-08-26T09:03:51.387Z,34.00
2022-08-26T09:06:18.837Z,34.73
2022-08-26T09:08:46.658Z,35.37
2022-08-26T09:11:17.565Z,34.11
2022-08-26T09:13:52.029Z,34.90
2022-08-26T09:16:37.301Z,33.22
2022-08-26T09:19:33.509Z,35.97
2022-08-26T09:22:00.526Z,33.42
2022-08-26T09:24:29.482Z,32.57
2022-08-26T09:26:58.250Z,34.34
2022-08-26T09:29:26.756Z,36.65
2022-08-26T09:32:12.915Z,31.99
2022-08-26T09:34:52.071Z,32.33
2022-08-26T09:37:32.369Z,33.96
2022-08-26T09:40:26.901Z,35.62
2022-08-26T09:43:22.456Z,38.22
2022-08-26T09:45:58.420Z,34.44
2022-08-26T09:48:26.158Z,35.10
2022-08-26T09:50:55.031Z,31.97
2022-08-26T09:53:28.495Z,32.77
2022-08-26T09:56:14.875Z,33.37
2022-08-26T09:58:43.504Z,31.30
2022-08-26T10:01:15.886Z,32.01
2022-08-26T10:03:43.425Z,35.64
2022-08-26T10:06:12.804Z,32.11
2022-08-26T10:08:42.091Z,32.65
2022-08-26T10:11:16.996Z,37.83
2022-08-26T10:13:46.158Z,32.81
2022-08-26T10:16:33.333Z,31.38
2022-08-26T10:19:13.257Z,32.64
2022-08-26T10:21:53.083Z,33.51
2022-08-26T10:24:23.723Z,35.34
2022-08-26T10:26:58.795Z,30.41
2022-08-26T10:29:29.707Z,31.48
2022-08-26T10:32:03.647Z,30.50
2022-08-26T10:34:32.037Z,32.08
2022-08-26T10:37:14.991Z,29.71
2022-08-26T10:39:51.947Z,28.91
2022-08-26T10:42:35.241Z,29.03
2022-08-26T10:45:05.594Z,28.02
2022-08-26T10:47:44.873Z,28.45
2022-08-26T10:50:11.451Z,26.96
2022-08-26T10:53:08.753Z,29.61
2022-08-26T10:55:53.133Z,27.03
2022-08-26T10:58:26.300Z,26.40
2022-08-26T11:01:17.015Z,25.00
2022-08-26T11:04:08.705Z,26.26
2022-08-26T11:06:37.113Z,26.35
2022-08-26T11:09:08.685Z,25.83
2022-08-26T11:11:41.351Z,26.58
2022-08-26T11:14:09.195Z,27.26
2022-08-26T11:16:49.714Z,27.38
2022-08-26T11:19:50.544Z,25.45
2022-08-26T11:22:25.705Z,25.02
2022-08-26T11:24:54.962Z,26.11
2022-08-26T11:27:24.907Z,26.34
2022-08-26T11:30:10.768Z,25.87
2022-08-26T11:32:39.258Z,26.11
2022-08-26T11:35:07.093Z,25.33
2022-08-26T11:37:40.612Z,23.57
2022-08-26T11:40:08.275Z,26.00
2022-08-26T11:42:51.885Z,25.75
2022-08-26T11:45:27.567Z,24.42
2022-08-26T11:47:54.873Z,26.20
2022-08-26T11:50:26.390Z,26.28
2022-08-26T11:52:55.648Z,25.09
2022-08-26T11:55:23.296Z,23.93
2022-08-26T11:57:53.224Z,24.36
2022-08-26T12:00:24.310Z,23.95
2022-08-26T12:02:52.396Z,24.37
2022-08-26T12:05:24.440Z,22.70
2022-08-26T12:07:54.399Z,22.75
2022-08-26T12:10:30.027Z,22.47
2022-08-26T12:12:58.684Z,25.46
2022-08-26T12:15:26.412Z,24.66
2022-08-26T12:17:56.148Z,25.44
2022-08-26T12:20:45.791Z,26.20
2022-08-26T12:23:26.999Z,25.99
2022-08-26T12:26:02.280Z,26.02
2022-08-26T12:28:30.094Z,25.68
2022-08-26T12:31:00.937Z,24.75
2022-08-26T12:33:27.986Z,23.93
2022-08-26T12:35:56.709Z,25.73
2022-08-26T12:38:24.951Z,23.74
2022-08-26T12:40:51.835Z,23.51
2022-08-26T12:43:41.635Z,24.21
2022-08-26T12:46:10.320Z,23.76
2022-08-26T12:48:38.845Z,25.20
2022-08-26T12:51:15.393Z,23.69
2022-08-26T12:53:43.510Z,24.34
2022-08-26T12:56:30.153Z,25.64
2022-08-26T12:59:20.868Z,24.53
2022-08-26T13:01:48.497Z,26.46
2022-08-26T13:04:49.000Z,24.61
2022-08-26T13:07:20.916Z,22.99
2022-08-26T13:09:47.747Z,23.84
2022-08-26T13:12:23.270Z,23.46
2022-08-26T13:14:50.890Z,23.16
2022-08-26T13:17:17.357Z,23.26
2022-08-26T13:19:43.871Z,23.18
2022-08-26T13:22:11.914Z,24.54
2022-08-26T13:24:40.520Z,23.84
2022-08-26T13:27:08.009Z,23.15
2022-08-26T13:29:34.882Z,25.52
2022-08-26T13:32:01.649Z,25.55
2022-08-26T13:34:28.594Z,24.25
2022-08-26T13:36:56.348Z,24.78
2022-08-26T13:39:23.675Z,23.41
2022-08-26T13:41:50.569Z,23.63
2022-08-26T13:44:17.448Z,24.53
2022-08-26T13:49:12.114Z,23.78
2022-08-26T13:51:38.959Z,23.28
2022-08-26T13:54:06.028Z,22.83
2022-08-26T13:56:32.846Z,24.93
2022-08-26T13:59:00.098Z,22.31
2022-08-26T14:01:28.708Z,22.25
2022-08-26T14:03:55.334Z,23.05
2022-08-26T14:06:21.918Z,22.71
2022-08-26T14:08:48.634Z,24.44
2022-08-26T14:11:15.222Z,23.98
2022-08-26T14:13:41.762Z,24.84
2022-08-26T14:16:10.644Z,23.88
2022-08-26T14:18:42.581Z,23.57
2022-08-26T14:21:12.638Z,25.83
2022-08-26T14:23:39.140Z,25.32
2022-08-26T14:26:08.448Z,23.12
2022-08-26T14:28:35.388Z,23.87
2022-08-26T14:31:02.515Z,25.60
2022-08-26T14:33:32.328Z,24.39
2022-08-26T14:36:19.586Z,24.91
2022-08-26T14:38:46.351Z,25.02
2022-08-26T14:41:14.001Z,24.49
2022-08-26T14:43:42.878Z,23.98
2022-08-26T14:46:09.424Z,24.86
2022-08-26T14:48:35.970Z,24.11
2022-08-26T14:51:02.465Z,25.59
2022-08-26T14:53:47.678Z,26.15
2022-08-26T14:56:16.717Z,24.79
2022-08-26T14:58:44.108Z,24.09
2022-08-26T15:01:12.919Z,26.94
2022-08-26T15:03:39.581Z,26.62
2022-08-26T15:06:06.419Z,27.93
2022-08-26T15:08:36.558Z,27.02
2022-08-26T15:11:03.918Z,24.66
2022-08-26T15:13:30.531Z,25.91
2022-08-26T15:15:57.024Z,26.55
2022-08-26T15:18:23.560Z,28.61
2022-08-26T15:20:50.442Z,27.78
2022-08-26T15:23:16.926Z,27.86
2022-08-26T15:25:44.648Z,28.14
2022-08-26T15:28:11.218Z,28.63
2022-08-26T15:30:38.276Z,28.95
2022-08-26T15:33:04.773Z,29.09
2022-08-26T15:35:32.977Z,29.59
2022-08-26T15:38:02.605Z,30.37
2022-08-26T15:40:29.171Z,30.36
2022-08-26T15:43:11.364Z,32.28
2022-08-26T15:45:42.240Z,30.89
2022-08-26T15:48:08.731Z,31.79
2022-08-26T15:50:35.289Z,31.16
2022-08-26T15:53:01.960Z,31.80
2022-08-26T15:55:28.609Z,32.40
2022-08-26T15:57:55.684Z,31.60
2022-08-26T16:00:23.354Z,32.85
2022-08-26T16:02:50.439Z,32.60
2022-08-26T16:05:17.356Z,32.26
2022-08-26T16:07:43.858Z,33.36
2022-08-26T16:10:10.474Z,33.25
2022-08-26T16:12:37.012Z,35.81
2022-08-26T16:15:03.706Z,34.78
2022-08-26T16:17:30.186Z,33.34
2022-08-26T16:19:56.676Z,33.56
2022-08-26T16:22:23.241Z,33.69
2022-08-26T16:24:50.288Z,35.10
2022-08-26T16:27:16.863Z,34.17
2022-08-26T16:29:43.383Z,34.39
2022-08-26T16:32:09.936Z,34.02
2022-08-26T16:34:36.530Z,35.75
2022-08-26T16:37:03.208Z,35.82
2022-08-26T16:39:29.834Z,36.55
2022-08-26T16:41:56.376Z,36.93
2022-08-26T16:44:22.933Z,38.10
2022-08-26T16:46:50.017Z,38.34
2022-08-26T16:49:22.552Z,38.79
2022-08-26T16:51:49.540Z,39.69
2022-08-26T16:54:16.071Z,40.66
2022-08-26T16:56:42.542Z,40.29
2022-08-26T16:59:11.477Z,40.40
2022-08-26T17:01:38.081Z,40.41
2022-08-26T17:04:04.884Z,40.57
2022-08-26T17:06:31.430Z,41.14
2022-08-26T17:08:58.043Z,42.86
2022-08-26T17:11:24.588Z,42.66
2022-08-26T17:13:51.116Z,42.93
2022-08-26T17:16:17.646Z,42.46
2022-08-26T17:18:44.371Z,43.29
2022-08-26T17:21:11.838Z,43.38
2022-08-26T17:23:38.872Z,43.91
2022-08-26T17:26:05.535Z,43.64
2022-08-26T17:28:32.385Z,44.64
2022-08-26T17:30:59.139Z,45.29
2022-08-26T17:33:26.247Z,45.24
2022-08-26T17:35:53.200Z,44.53
2022-08-26T17:38:21.172Z,47.58
2022-08-26T17:40:47.881Z,47.90
2022-08-26T17:43:14.524Z,47.07
2022-08-26T17:45:41.431Z,47.96
2022-08-26T17:48:09.055Z,47.94
2022-08-26T17:50:35.753Z,47.68
2022-08-26T17:53:02.319Z,48.78
2022-08-26T17:55:29.284Z,48.71
2022-08-26T17:57:55.885Z,49.20
2022-08-26T18:00:26.482Z,49.36
2022-08-26T18:02:58.561Z,49.73
2022-08-26T18:05:25.192Z,50.61
2022-08-26T18:07:51.808Z,50.68
2022-08-26T18:10:19.447Z,50.12
2022-08-26T18:12:45.999Z,50.80
2022-08-26T18:15:14.135Z,54.22
2022-08-26T18:17:56.297Z,51.92
2022-08-26T18:20:43.583Z,52.26
2022-08-26T18:23:10.866Z,52.72
2022-08-26T18:25:40.737Z,54.85
2022-08-26T18:28:27.874Z,53.93
2022-08-26T18:30:57.495Z,54.94
2022-08-26T18:33:24.416Z,54.89
2022-08-26T18:35:50.887Z,55.65
2022-08-26T18:38:17.755Z,56.11
2022-08-26T18:40:45.933Z,56.07
2022-08-26T18:43:12.571Z,55.55
2022-08-26T18:45:39.189Z,54.75
2022-08-26T18:48:05.769Z,56.22
2022-08-26T18:50:32.313Z,59.20
2022-08-26T18:52:58.815Z,57.89
2022-08-26T18:55:45.335Z,56.87
2022-08-26T18:58:31.875Z,56.95
2022-08-26T19:01:03.012Z,55.04
2022-08-26T19:03:49.395Z,56.13
2022-08-26T19:06:36.347Z,56.12
2022-08-26T19:09:23.093Z,57.16
2022-08-26T19:11:50.194Z,55.55
2022-08-26T19:14:25.566Z,57.50
2022-08-26T19:17:12.289Z,57.96
2022-08-26T19:19:38.992Z,55.25
2022-08-26T19:22:25.528Z,55.17
2022-08-26T19:25:12.183Z,55.90
2022-08-26T19:27:58.724Z,56.59
2022-08-26T19:30:29.830Z,58.51
2022-08-26T19:33:17.030Z,58.69
2022-08-26T19:36:06.490Z,58.57
2022-08-26T19:38:50.863Z,58.48
2022-08-26T19:41:38.904Z,60.44
2022-08-26T19:44:44.117Z,61.28
2022-08-26T19:47:31.439Z,61.58
2022-08-26T19:50:18.039Z,63.11
2022-08-26T19:53:04.732Z,65.87
2022-08-26T19:55:51.886Z,65.54
2022-08-26T19:58:38.512Z,66.29
2022-08-26T20:01:25.745Z,67.99
2022-08-26T20:04:12.727Z,69.83
2022-08-26T20:07:00.902Z,69.48
2022-08-26T20:09:48.160Z,70.39
2022-08-26T20:12:15.545Z,70.78
2022-08-26T20:14:46.269Z,71.12
2022-08-26T20:17:32.952Z,71.68
2022-08-26T20:20:32.736Z,72.62
2022-08-26T20:23:01.755Z,72.64
2022-08-26T20:25:30.256Z,73.67
2022-08-26T20:28:06.473Z,73.93
2022-08-26T20:30:33.388Z,75.10
2022-08-26T20:33:20.576Z,75.93
2022-08-26T20:36:10.166Z,76.72
2022-08-26T20:38:57.166Z,78.20
2022-08-26T20:41:32.980Z,78.52
2022-08-26T20:44:09.434Z,78.90
2022-08-26T20:46:36.220Z,79.49
2022-08-26T20:49:04.501Z,79.55
2022-08-26T20:51:37.478Z,80.25
2022-08-26T20:54:05.279Z,80.86
2022-08-26T20:56:31.834Z,81.84
2022-08-26T20:59:00.003Z,83.28
2022-08-26T21:01:28.391Z,83.12
2022-08-26T21:03:55.802Z,83.18
2022-08-26T21:06:23.252Z,83.44
2022-08-26T21:08:50.642Z,83.38
2022-08-26T21:11:18.413Z,83.60
2022-08-26T21:14:06.793Z,84.18
2022-08-26T21:16:46.210Z,83.24
2022-08-26T21:19:31.941Z,83.11
2022-08-26T21:22:18.475Z,84.14
2022-08-26T21:24:46.158Z,85.92
2022-08-26T21:27:34.250Z,85.24
2022-08-26T21:30:20.752Z,84.76
2022-08-26T21:33:04.335Z,84.28
2022-08-26T21:35:51.959Z,83.70
2022-08-26T21:38:20.420Z,83.71
2022-08-26T21:41:07.346Z,84.07
2022-08-26T21:43:35.641Z,83.57
2022-08-26T21:46:17.090Z,83.58
2022-08-26T21:48:49.938Z,84.46
2022-08-26T21:51:33.776Z,84.20
2022-08-26T21:54:01.633Z,86.15
2022-08-26T21:56:46.726Z,83.89
2022-08-26T21:59:14.747Z,84.18
2022-08-26T22:01:41.667Z,83.21
2022-08-26T22:04:09.262Z,82.38
2022-08-26T22:06:39.513Z,82.85
2022-08-26T22:09:06.025Z,84.50
2022-08-26T22:11:32.520Z,82.57
2022-08-26T22:13:59.413Z,81.55
2022-08-26T22:16:28.827Z,82.33
2022-08-26T22:19:17.335Z,81.12
2022-08-26T22:21:45.312Z,81.47
2022-08-26T22:24:12.483Z,83.18
2022-08-26T22:26:43.235Z,82.44
2022-08-26T22:29:09.893Z,82.72
2022-08-26T22:31:38.082Z,82.81
2022-08-26T22:34:09.588Z,85.03
2022-08-26T22:36:42.684Z,83.22
2022-08-26T22:39:11.143Z,82.96
2022-08-26T22:41:37.831Z,85.59
2022-08-26T22:44:04.958Z,84.96
2022-08-26T22:46:40.857Z,84.69
2022-08-26T22:49:27.367Z,84.87
2022-08-26T22:52:13.823Z,86.28
2022-08-26T22:54:42.236Z,85.43
2022-08-26T22:57:28.772Z,85.05
2022-08-26T23:00:15.399Z,87.06
2022-08-26T23:03:02.925Z,85.95
2022-08-26T23:05:49.490Z,87.12
2022-08-26T23:08:36.536Z,88.75
2022-08-26T23:11:23.162Z,87.44
2022-08-26T23:14:09.971Z,88.62
2022-08-26T23:16:39.588Z,88.97
2022-08-26T23:19:09.494Z,89.02
2022-08-26T23:21:36.088Z,88.95
2022-08-26T23:24:02.836Z,89.52
2022-08-26T23:26:29.458Z,90.39
2022-08-26T23:28:55.980Z,89.56
2022-08-26T23:31:22.479Z,89.49
2022-08-26T23:34:07.740Z,91.23
2022-08-26T23:36:35.094Z,91.45
2022-08-26T23:39:03.211Z,92.33
2022-08-26T23:41:29.732Z,93.10
2022-08-26T23:43:59.562Z,93.10
2022-08-26T23:46:43.286Z,94.35
2022-08-26T23:49:29.977Z,93.51
2022-08-26T23:52:35.167Z,92.62
2022-08-26T23:55:23.249Z,93.71
2022-08-26T23:57:50.105Z,92.81
